Logrono/Agoncillo, Spain
Current Conditions -  °F | °C
As of 10:00 AM on Wednesday 22 Oct 2014 (Local Time) from LELO Reporting Station
Scattered Clouds Scattered Clouds  
Wind Chill: 57°   Ceiling: Unl
Heat Index: 57°   Visibility: 6mi
Dew Point: 48°   Wind: 5mph
Humidity: 72%   Direction: 230°SW
Pressure: 30.48"   Gusts: NA
Location:  42.46°N, 2.31°W
Report Text: LELO 220800Z 23004KT 9999 SCT035 14/09 Q1032
Loading
Personal Weather Stations






























Interactive Weather Map
Tropical Storm Tracking
New forecast layout! Learn more

10-Day Weather Forecast

Advertisements
Track Severe Weather on mobile